sensor_id;sensor_type;location;lat;lon;timestamp;temperature;humidity
48043;DHT22;33988;47.992;8.820;2022-07-21T00:00:29;25.30;60.20
48043;DHT22;33988;47.992;8.820;2022-07-21T00:03:01;25.20;59.40
48043;DHT22;33988;47.992;8.820;2022-07-21T00:05:30;25.20;59.50
48043;DHT22;33988;47.992;8.820;2022-07-21T00:07:57;25.20;59.60
48043;DHT22;33988;47.992;8.820;2022-07-21T00:10:32;25.20;59.60
48043;DHT22;33988;47.992;8.820;2022-07-21T00:13:01;25.20;59.60
48043;DHT22;33988;47.992;8.820;2022-07-21T00:15:31;25.20;59.60
48043;DHT22;33988;47.992;8.820;2022-07-21T00:18:00;25.20;59.70
48043;DHT22;33988;47.992;8.820;2022-07-21T00:20:30;25.20;59.80
48043;DHT22;33988;47.992;8.820;2022-07-21T00:23:03;25.20;59.80
48043;DHT22;33988;47.992;8.820;2022-07-21T00:25:32;25.20;59.80
48043;DHT22;33988;47.992;8.820;2022-07-21T00:28:02;25.20;59.80
48043;DHT22;33988;47.992;8.820;2022-07-21T00:30:35;25.20;59.80
48043;DHT22;33988;47.992;8.820;2022-07-21T00:33:16;25.20;59.80
48043;DHT22;33988;47.992;8.820;2022-07-21T00:36:03;25.20;59.90
48043;DHT22;33988;47.992;8.820;2022-07-21T00:38:35;25.10;60.00
48043;DHT22;33988;47.992;8.820;2022-07-21T00:41:18;25.10;59.70
48043;DHT22;33988;47.992;8.820;2022-07-21T00:44:06;25.10;59.90
48043;DHT22;33988;47.992;8.820;2022-07-21T00:46:35;25.10;60.20
48043;DHT22;33988;47.992;8.820;2022-07-21T00:49:03;25.10;60.00
48043;DHT22;33988;47.992;8.820;2022-07-21T00:51:32;25.10;60.10
48043;DHT22;33988;47.992;8.820;2022-07-21T00:53:59;25.10;60.20
48043;DHT22;33988;47.992;8.820;2022-07-21T00:56:27;25.10;60.30
48043;DHT22;33988;47.992;8.820;2022-07-21T00:59:01;25.20;60.40
48043;DHT22;33988;47.992;8.820;2022-07-21T01:01:31;25.10;60.40
48043;DHT22;33988;47.992;8.820;2022-07-21T01:04:00;25.20;60.50
48043;DHT22;33988;47.992;8.820;2022-07-21T01:06:27;25.20;60.30
48043;DHT22;33988;47.992;8.820;2022-07-21T01:08:57;25.10;60.20
48043;DHT22;33988;47.992;8.820;2022-07-21T01:11:27;25.10;60.20
48043;DHT22;33988;47.992;8.820;2022-07-21T01:13:57;25.10;60.30
48043;DHT22;33988;47.992;8.820;2022-07-21T01:16:26;25.10;60.40
48043;DHT22;33988;47.992;8.820;2022-07-21T01:18:56;25.10;61.30
48043;DHT22;33988;47.992;8.820;2022-07-21T01:21:41;25.10;60.60
48043;DHT22;33988;47.992;8.820;2022-07-21T01:24:10;25.00;60.90
48043;DHT22;33988;47.992;8.820;2022-07-21T01:26:42;25.00;60.60
48043;DHT22;33988;47.992;8.820;2022-07-21T01:29:14;25.00;60.90
48043;DHT22;33988;47.992;8.820;2022-07-21T01:31:46;25.00;60.90
48043;DHT22;33988;47.992;8.820;2022-07-21T01:34:14;25.00;60.90
48043;DHT22;33988;47.992;8.820;2022-07-21T01:36:41;25.00;60.90
48043;DHT22;33988;47.992;8.820;2022-07-21T01:39:11;25.00;60.90
48043;DHT22;33988;47.992;8.820;2022-07-21T01:41:59;25.00;61.10
48043;DHT22;33988;47.992;8.820;2022-07-21T01:44:30;25.00;61.10
48043;DHT22;33988;47.992;8.820;2022-07-21T01:46:59;25.00;61.10
48043;DHT22;33988;47.992;8.820;2022-07-21T01:49:29;25.00;61.10
48043;DHT22;33988;47.992;8.820;2022-07-21T01:51:59;25.00;61.30
48043;DHT22;33988;47.992;8.820;2022-07-21T01:54:28;25.00;61.30
48043;DHT22;33988;47.992;8.820;2022-07-21T01:56:55;25.00;61.40
48043;DHT22;33988;47.992;8.820;2022-07-21T01:59:25;25.00;61.30
48043;DHT22;33988;47.992;8.820;2022-07-21T02:01:54;25.00;61.30
48043;DHT22;33988;47.992;8.820;2022-07-21T02:04:21;25.00;61.20
48043;DHT22;33988;47.992;8.820;2022-07-21T02:06:48;25.10;61.30
48043;DHT22;33988;47.992;8.820;2022-07-21T02:09:15;25.00;61.30
48043;DHT22;33988;47.992;8.820;2022-07-21T02:11:45;25.00;61.30
48043;DHT22;33988;47.992;8.820;2022-07-21T02:14:12;25.00;61.40
48043;DHT22;33988;47.992;8.820;2022-07-21T02:16:41;25.00;61.40
48043;DHT22;33988;47.992;8.820;2022-07-21T02:19:08;25.00;61.30
48043;DHT22;33988;47.992;8.820;2022-07-21T02:21:36;25.00;61.20
48043;DHT22;33988;47.992;8.820;2022-07-21T02:24:03;25.00;61.20
48043;DHT22;33988;47.992;8.820;2022-07-21T02:26:31;25.00;61.20
48043;DHT22;33988;47.992;8.820;2022-07-21T02:28:58;25.00;61.20
48043;DHT22;33988;47.992;8.820;2022-07-21T02:31:27;25.00;61.20
48043;DHT22;33988;47.992;8.820;2022-07-21T02:33:54;24.90;61.20
48043;DHT22;33988;47.992;8.820;2022-07-21T02:36:24;24.90;61.20
48043;DHT22;33988;47.992;8.820;2022-07-21T02:38:56;24.90;61.20
48043;DHT22;33988;47.992;8.820;2022-07-21T02:41:23;24.90;61.30
48043;DHT22;33988;47.992;8.820;2022-07-21T02:43:52;24.90;61.30
48043;DHT22;33988;47.992;8.820;2022-07-21T02:46:19;24.80;61.30
48043;DHT22;33988;47.992;8.820;2022-07-21T02:48:46;24.90;61.50
48043;DHT22;33988;47.992;8.820;2022-07-21T02:51:14;24.80;61.60
48043;DHT22;33988;47.992;8.820;2022-07-21T02:53:43;24.80;61.60
48043;DHT22;33988;47.992;8.820;2022-07-21T02:56:10;24.80;61.80
48043;DHT22;33988;47.992;8.820;2022-07-21T02:58:37;24.80;61.80
48043;DHT22;33988;47.992;8.820;2022-07-21T03:01:06;24.80;61.90
48043;DHT22;33988;47.992;8.820;2022-07-21T03:03:35;24.80;61.80
48043;DHT22;33988;47.992;8.820;2022-07-21T03:06:05;24.80;61.80
48043;DHT22;33988;47.992;8.820;2022-07-21T03:08:33;24.80;61.90
48043;DHT22;33988;47.992;8.820;2022-07-21T03:11:00;24.80;61.90
48043;DHT22;33988;47.992;8.820;2022-07-21T03:13:29;24.80;61.90
48043;DHT22;33988;47.992;8.820;2022-07-21T03:15:56;24.80;61.80
48043;DHT22;33988;47.992;8.820;2022-07-21T03:18:23;24.80;61.90
48043;DHT22;33988;47.992;8.820;2022-07-21T03:20:53;24.80;61.90
48043;DHT22;33988;47.992;8.820;2022-07-21T03:23:23;24.80;62.00
48043;DHT22;33988;47.992;8.820;2022-07-21T03:25:52;24.80;62.00
48043;DHT22;33988;47.992;8.820;2022-07-21T03:28:22;24.80;62.10
48043;DHT22;33988;47.992;8.820;2022-07-21T03:30:49;24.80;62.00
48043;DHT22;33988;47.992;8.820;2022-07-21T03:33:16;24.80;61.90
48043;DHT22;33988;47.992;8.820;2022-07-21T03:35:43;24.80;62.00
48043;DHT22;33988;47.992;8.820;2022-07-21T03:38:13;24.70;62.00
48043;DHT22;33988;47.992;8.820;2022-07-21T03:40:41;24.70;62.00
48043;DHT22;33988;47.992;8.820;2022-07-21T03:43:08;24.70;62.00
48043;DHT22;33988;47.992;8.820;2022-07-21T03:45:36;24.70;62.10
48043;DHT22;33988;47.992;8.820;2022-07-21T03:48:06;24.70;62.10
48043;DHT22;33988;47.992;8.820;2022-07-21T03:50:38;24.70;62.20
48043;DHT22;33988;47.992;8.820;2022-07-21T03:53:07;24.70;62.20
48043;DHT22;33988;47.992;8.820;2022-07-21T03:55:35;24.70;62.20
48043;DHT22;33988;47.992;8.820;2022-07-21T03:58:05;24.70;62.30
48043;DHT22;33988;47.992;8.820;2022-07-21T04:00:39;24.70;62.50
48043;DHT22;33988;47.992;8.820;2022-07-21T04:03:08;24.60;62.60
48043;DHT22;33988;47.992;8.820;2022-07-21T04:05:36;24.70;62.50
48043;DHT22;33988;47.992;8.820;2022-07-21T04:08:06;24.70;62.60
48043;DHT22;33988;47.992;8.820;2022-07-21T04:10:36;24.70;62.60
48043;DHT22;33988;47.992;8.820;2022-07-21T04:13:10;24.70;62.60
48043;DHT22;33988;47.992;8.820;2022-07-21T04:15:39;24.70;62.60
48043;DHT22;33988;47.992;8.820;2022-07-21T04:18:11;24.70;62.70
48043;DHT22;33988;47.992;8.820;2022-07-21T04:20:41;24.70;62.70
48043;DHT22;33988;47.992;8.820;2022-07-21T04:23:08;24.70;62.60
48043;DHT22;33988;47.992;8.820;2022-07-21T04:25:35;24.70;62.60
48043;DHT22;33988;47.992;8.820;2022-07-21T04:28:05;24.70;62.60
48043;DHT22;33988;47.992;8.820;2022-07-21T04:30:38;24.70;62.60
48043;DHT22;33988;47.992;8.820;2022-07-21T04:33:05;24.70;63.40
48043;DHT22;33988;47.992;8.820;2022-07-21T04:35:33;24.70;62.40
48043;DHT22;33988;47.992;8.820;2022-07-21T04:38:00;24.70;62.40
48043;DHT22;33988;47.992;8.820;2022-07-21T04:40:27;24.70;62.40
48043;DHT22;33988;47.992;8.820;2022-07-21T04:42:54;24.60;62.40
48043;DHT22;33988;47.992;8.820;2022-07-21T04:45:23;24.60;62.30
48043;DHT22;33988;47.992;8.820;2022-07-21T04:47:54;24.60;62.20
48043;DHT22;33988;47.992;8.820;2022-07-21T04:50:26;24.60;62.20
48043;DHT22;33988;47.992;8.820;2022-07-21T04:52:56;24.60;62.20
48043;DHT22;33988;47.992;8.820;2022-07-21T04:55:25;24.60;62.20
48043;DHT22;33988;47.992;8.820;2022-07-21T04:57:55;24.60;62.20
48043;DHT22;33988;47.992;8.820;2022-07-21T05:00:28;24.50;62.20
48043;DHT22;33988;47.992;8.820;2022-07-21T05:02:56;24.50;62.30
48043;DHT22;33988;47.992;8.820;2022-07-21T05:05:28;24.50;62.30
48043;DHT22;33988;47.992;8.820;2022-07-21T05:07:55;24.50;62.20
48043;DHT22;33988;47.992;8.820;2022-07-21T05:10:22;24.50;62.30
48043;DHT22;33988;47.992;8.820;2022-07-21T05:12:50;24.60;62.30
48043;DHT22;33988;47.992;8.820;2022-07-21T05:15:17;24.60;62.30
48043;DHT22;33988;47.992;8.820;2022-07-21T05:17:44;24.50;62.30
48043;DHT22;33988;47.992;8.820;2022-07-21T05:20:14;24.60;62.30
48043;DHT22;33988;47.992;8.820;2022-07-21T05:22:45;24.60;62.20
48043;DHT22;33988;47.992;8.820;2022-07-21T05:25:17;24.60;61.90
48043;DHT22;33988;47.992;8.820;2022-07-21T05:27:44;24.60;61.80
48043;DHT22;33988;47.992;8.820;2022-07-21T05:30:13;24.60;61.80
48043;DHT22;33988;47.992;8.820;2022-07-21T05:32:40;24.60;61.80
48043;DHT22;33988;47.992;8.820;2022-07-21T05:35:15;24.60;61.90
48043;DHT22;33988;47.992;8.820;2022-07-21T05:37:44;24.60;62.10
48043;DHT22;33988;47.992;8.820;2022-07-21T05:40:14;24.60;62.10
48043;DHT22;33988;47.992;8.820;2022-07-21T05:42:42;24.60;62.20
48043;DHT22;33988;47.992;8.820;2022-07-21T05:45:15;24.60;62.30
48043;DHT22;33988;47.992;8.820;2022-07-21T05:47:45;24.60;62.20
48043;DHT22;33988;47.992;8.820;2022-07-21T05:50:14;24.60;62.20
48043;DHT22;33988;47.992;8.820;2022-07-21T05:52:44;24.70;62.10
48043;DHT22;33988;47.992;8.820;2022-07-21T05:55:12;24.70;62.10
48043;DHT22;33988;47.992;8.820;2022-07-21T05:57:39;24.70;62.10
48043;DHT22;33988;47.992;8.820;2022-07-21T06:00:13;24.70;62.10
48043;DHT22;33988;47.992;8.820;2022-07-21T06:02:46;24.70;62.10
48043;DHT22;33988;47.992;8.820;2022-07-21T06:05:13;24.80;62.20
48043;DHT22;33988;47.992;8.820;2022-07-21T06:07:43;24.80;62.10
48043;DHT22;33988;47.992;8.820;2022-07-21T06:10:11;24.80;61.80
48043;DHT22;33988;47.992;8.820;2022-07-21T06:12:42;24.90;61.60
48043;DHT22;33988;47.992;8.820;2022-07-21T06:15:10;24.90;61.80
48043;DHT22;33988;47.992;8.820;2022-07-21T06:17:42;24.90;61.50
48043;DHT22;33988;47.992;8.820;2022-07-21T06:20:12;25.00;61.80
48043;DHT22;33988;47.992;8.820;2022-07-21T06:22:39;25.10;61.80
48043;DHT22;33988;47.992;8.820;2022-07-21T06:25:07;25.10;61.60
48043;DHT22;33988;47.992;8.820;2022-07-21T06:27:37;25.20;61.40
48043;DHT22;33988;47.992;8.820;2022-07-21T06:30:05;25.30;61.50
48043;DHT22;33988;47.992;8.820;2022-07-21T06:32:33;25.30;61.60
48043;DHT22;33988;47.992;8.820;2022-07-21T06:35:02;25.40;61.40
48043;DHT22;33988;47.992;8.820;2022-07-21T06:37:30;25.40;61.30
48043;DHT22;33988;47.992;8.820;2022-07-21T06:39:57;25.50;61.10
48043;DHT22;33988;47.992;8.820;2022-07-21T06:42:26;25.60;61.20
48043;DHT22;33988;47.992;8.820;2022-07-21T06:44:53;25.60;61.00
48043;DHT22;33988;47.992;8.820;2022-07-21T06:47:20;25.70;61.20
48043;DHT22;33988;47.992;8.820;2022-07-21T06:49:47;25.70;60.80
48043;DHT22;33988;47.992;8.820;2022-07-21T06:52:14;25.80;60.80
48043;DHT22;33988;47.992;8.820;2022-07-21T06:54:41;25.90;60.20
48043;DHT22;33988;47.992;8.820;2022-07-21T06:57:08;26.00;60.30
48043;DHT22;33988;47.992;8.820;2022-07-21T06:59:35;26.10;60.00
48043;DHT22;33988;47.992;8.820;2022-07-21T07:02:02;26.20;60.20
48043;DHT22;33988;47.992;8.820;2022-07-21T07:04:30;26.30;59.80
48043;DHT22;33988;47.992;8.820;2022-07-21T07:06:59;26.40;59.90
48043;DHT22;33988;47.992;8.820;2022-07-21T07:09:26;26.60;60.00
48043;DHT22;33988;47.992;8.820;2022-07-21T07:11:58;26.70;59.70
48043;DHT22;33988;47.992;8.820;2022-07-21T07:14:50;26.90;59.20
48043;DHT22;33988;47.992;8.820;2022-07-21T07:17:20;27.10;58.80
48043;DHT22;33988;47.992;8.820;2022-07-21T07:19:47;27.20;58.40
48043;DHT22;33988;47.992;8.820;2022-07-21T07:22:16;27.40;58.20
48043;DHT22;33988;47.992;8.820;2022-07-21T07:24:43;27.50;57.80
48043;DHT22;33988;47.992;8.820;2022-07-21T07:27:12;27.60;57.60
48043;DHT22;33988;47.992;8.820;2022-07-21T07:29:42;27.70;57.60
48043;DHT22;33988;47.992;8.820;2022-07-21T07:32:11;27.80;57.30
48043;DHT22;33988;47.992;8.820;2022-07-21T07:34:41;27.90;56.80
48043;DHT22;33988;47.992;8.820;2022-07-21T07:37:10;28.00;56.30
48043;DHT22;33988;47.992;8.820;2022-07-21T07:39:37;28.10;55.80
48043;DHT22;33988;47.992;8.820;2022-07-21T07:42:06;28.00;55.50
48043;DHT22;33988;47.992;8.820;2022-07-21T07:44:34;28.00;55.20
48043;DHT22;33988;47.992;8.820;2022-07-21T07:47:05;27.90;54.90
48043;DHT22;33988;47.992;8.820;2022-07-21T07:49:33;27.80;54.50
48043;DHT22;33988;47.992;8.820;2022-07-21T07:52:03;27.70;54.50
48043;DHT22;33988;47.992;8.820;2022-07-21T07:54:32;27.60;54.60
48043;DHT22;33988;47.992;8.820;2022-07-21T07:57:06;27.50;54.70
48043;DHT22;33988;47.992;8.820;2022-07-21T07:59:33;27.50;55.00
48043;DHT22;33988;47.992;8.820;2022-07-21T08:02:00;27.50;55.00
48043;DHT22;33988;47.992;8.820;2022-07-21T08:04:29;27.50;55.40
48043;DHT22;33988;47.992;8.820;2022-07-21T08:06:56;27.60;55.00
48043;DHT22;33988;47.992;8.820;2022-07-21T08:09:33;27.70;54.50
48043;DHT22;33988;47.992;8.820;2022-07-21T08:12:00;27.70;54.20
48043;DHT22;33988;47.992;8.820;2022-07-21T08:14:27;27.90;54.30
48043;DHT22;33988;47.992;8.820;2022-07-21T08:16:54;28.00;54.50
48043;DHT22;33988;47.992;8.820;2022-07-21T08:19:21;28.10;53.70
48043;DHT22;33988;47.992;8.820;2022-07-21T08:21:48;28.10;53.00
48043;DHT22;33988;47.992;8.820;2022-07-21T08:24:40;28.20;53.00
48043;DHT22;33988;47.992;8.820;2022-07-21T08:27:10;28.40;53.60
48043;DHT22;33988;47.992;8.820;2022-07-21T08:29:37;28.50;52.80
48043;DHT22;33988;47.992;8.820;2022-07-21T08:32:07;28.80;52.30
48043;DHT22;33988;47.992;8.820;2022-07-21T08:34:36;29.10;53.20
48043;DHT22;33988;47.992;8.820;2022-07-21T08:37:05;29.40;52.60
48043;DHT22;33988;47.992;8.820;2022-07-21T08:39:35;29.70;52.40
48043;DHT22;33988;47.992;8.820;2022-07-21T08:42:04;30.00;51.60
48043;DHT22;33988;47.992;8.820;2022-07-21T08:44:34;30.30;50.80
48043;DHT22;33988;47.992;8.820;2022-07-21T08:47:06;30.40;50.50
48043;DHT22;33988;47.992;8.820;2022-07-21T08:49:34;30.60;49.80
48043;DHT22;33988;47.992;8.820;2022-07-21T08:52:02;30.60;49.50
48043;DHT22;33988;47.992;8.820;2022-07-21T08:54:30;30.70;49.00
48043;DHT22;33988;47.992;8.820;2022-07-21T08:56:59;30.80;48.20
48043;DHT22;33988;47.992;8.820;2022-07-21T08:59:26;30.80;48.30
48043;DHT22;33988;47.992;8.820;2022-07-21T09:01:58;30.80;48.50
48043;DHT22;33988;47.992;8.820;2022-07-21T09:04:29;30.80;48.50
48043;DHT22;33988;47.992;8.820;2022-07-21T09:07:06;30.90;48.80
48043;DHT22;33988;47.992;8.820;2022-07-21T09:09:37;31.00;48.30
48043;DHT22;33988;47.992;8.820;2022-07-21T09:12:07;31.10;48.40
48043;DHT22;33988;47.992;8.820;2022-07-21T09:14:36;31.20;47.60
48043;DHT22;33988;47.992;8.820;2022-07-21T09:17:04;31.30;47.60
48043;DHT22;33988;47.992;8.820;2022-07-21T09:19:37;31.40;46.30
48043;DHT22;33988;47.992;8.820;2022-07-21T09:22:11;31.50;46.50
48043;DHT22;33988;47.992;8.820;2022-07-21T09:24:39;31.60;46.70
48043;DHT22;33988;47.992;8.820;2022-07-21T09:27:16;31.70;46.20
48043;DHT22;33988;47.992;8.820;2022-07-21T09:32:25;31.90;46.10
48043;DHT22;33988;47.992;8.820;2022-07-21T09:35:02;31.80;45.80
48043;DHT22;33988;47.992;8.820;2022-07-21T09:37:37;31.80;45.30
48043;DHT22;33988;47.992;8.820;2022-07-21T09:40:09;31.90;44.70
48043;DHT22;33988;47.992;8.820;2022-07-21T09:42:44;31.70;45.90
48043;DHT22;33988;47.992;8.820;2022-07-21T09:45:16;31.90;45.60
48043;DHT22;33988;47.992;8.820;2022-07-21T09:47:44;32.00;45.60
48043;DHT22;33988;47.992;8.820;2022-07-21T09:50:16;32.20;45.80
48043;DHT22;33988;47.992;8.820;2022-07-21T09:52:54;32.20;45.10
48043;DHT22;33988;47.992;8.820;2022-07-21T09:55:22;32.30;44.70
48043;DHT22;33988;47.992;8.820;2022-07-21T09:57:50;32.40;44.30
48043;DHT22;33988;47.992;8.820;2022-07-21T10:00:20;32.50;44.10
48043;DHT22;33988;47.992;8.820;2022-07-21T10:02:48;32.60;43.50
48043;DHT22;33988;47.992;8.820;2022-07-21T10:05:20;32.50;42.90
48043;DHT22;33988;47.992;8.820;2022-07-21T10:07:58;32.40;43.30
48043;DHT22;33988;47.992;8.820;2022-07-21T10:10:31;32.40;43.10
48043;DHT22;33988;47.992;8.820;2022-07-21T10:13:18;32.50;43.00
48043;DHT22;33988;47.992;8.820;2022-07-21T10:15:46;32.50;43.10
48043;DHT22;33988;47.992;8.820;2022-07-21T10:18:39;32.60;43.40
48043;DHT22;33988;47.992;8.820;2022-07-21T10:21:42;32.50;42.10
48043;DHT22;33988;47.992;8.820;2022-07-21T10:24:14;32.50;42.40
48043;DHT22;33988;47.992;8.820;2022-07-21T10:27:01;32.50;42.40
48043;DHT22;33988;47.992;8.820;2022-07-21T10:29:54;32.50;41.60
48043;DHT22;33988;47.992;8.820;2022-07-21T10:32:37;32.60;41.90
48043;DHT22;33988;47.992;8.820;2022-07-21T10:37:56;32.40;42.40
48043;DHT22;33988;47.992;8.820;2022-07-21T10:48:50;32.60;41.40
48043;DHT22;33988;47.992;8.820;2022-07-21T10:51:21;32.70;41.40
48043;DHT22;33988;47.992;8.820;2022-07-21T10:54:20;32.80;40.80
48043;DHT22;33988;47.992;8.820;2022-07-21T10:56:48;32.80;40.10
48043;DHT22;33988;47.992;8.820;2022-07-21T11:00:17;32.80;41.40
48043;DHT22;33988;47.992;8.820;2022-07-21T11:03:00;32.70;41.80
48043;DHT22;33988;47.992;8.820;2022-07-21T11:05:31;32.40;42.40
48043;DHT22;33988;47.992;8.820;2022-07-21T11:08:12;32.60;41.70
48043;DHT22;33988;47.992;8.820;2022-07-21T11:10:49;32.60;41.20
48043;DHT22;33988;47.992;8.820;2022-07-21T11:13:20;32.70;41.40
48043;DHT22;33988;47.992;8.820;2022-07-21T11:15:59;32.80;41.90
48043;DHT22;33988;47.992;8.820;2022-07-21T11:18:29;32.90;42.00
48043;DHT22;33988;47.992;8.820;2022-07-21T11:26:18;33.20;40.00
48043;DHT22;33988;47.992;8.820;2022-07-21T11:29:04;33.20;40.40
48043;DHT22;33988;47.992;8.820;2022-07-21T11:31:45;33.10;40.10
48043;DHT22;33988;47.992;8.820;2022-07-21T11:34:15;33.10;39.80
48043;DHT22;33988;47.992;8.820;2022-07-21T11:36:43;33.10;40.40
48043;DHT22;33988;47.992;8.820;2022-07-21T11:39:14;33.20;40.40
48043;DHT22;33988;47.992;8.820;2022-07-21T11:41:42;33.20;39.80
48043;DHT22;33988;47.992;8.820;2022-07-21T11:44:22;33.30;40.20
48043;DHT22;33988;47.992;8.820;2022-07-21T11:46:55;33.30;38.60
48043;DHT22;33988;47.992;8.820;2022-07-21T11:49:23;33.30;39.40
48043;DHT22;33988;47.992;8.820;2022-07-21T11:52:10;33.40;39.20
48043;DHT22;33988;47.992;8.820;2022-07-21T11:54:52;33.40;39.00
48043;DHT22;33988;47.992;8.820;2022-07-21T11:57:22;33.40;38.80
48043;DHT22;33988;47.992;8.820;2022-07-21T11:59:50;33.40;38.40
48043;DHT22;33988;47.992;8.820;2022-07-21T12:02:21;33.30;37.80
48043;DHT22;33988;47.992;8.820;2022-07-21T12:04:56;33.20;37.70
48043;DHT22;33988;47.992;8.820;2022-07-21T12:10:02;32.90;38.20
48043;DHT22;33988;47.992;8.820;2022-07-21T12:12:43;32.80;38.50
48043;DHT22;33988;47.992;8.820;2022-07-21T12:17:48;32.70;38.80
48043;DHT22;33988;47.992;8.820;2022-07-21T12:22:58;32.60;39.10
48043;DHT22;33988;47.992;8.820;2022-07-21T12:28:06;32.50;37.70
48043;DHT22;33988;47.992;8.820;2022-07-21T12:30:38;32.50;38.50
48043;DHT22;33988;47.992;8.820;2022-07-21T12:33:26;32.50;38.20
48043;DHT22;33988;47.992;8.820;2022-07-21T12:36:04;32.40;37.30
48043;DHT22;33988;47.992;8.820;2022-07-21T12:38:47;32.50;38.20
48043;DHT22;33988;47.992;8.820;2022-07-21T12:41:19;32.40;37.80
48043;DHT22;33988;47.992;8.820;2022-07-21T12:44:00;32.40;38.00
48043;DHT22;33988;47.992;8.820;2022-07-21T12:46:29;32.40;37.60
48043;DHT22;33988;47.992;8.820;2022-07-21T12:49:08;32.40;38.10
48043;DHT22;33988;47.992;8.820;2022-07-21T12:51:39;32.50;37.80
48043;DHT22;33988;47.992;8.820;2022-07-21T12:54:11;32.50;37.80
48043;DHT22;33988;47.992;8.820;2022-07-21T12:56:38;32.50;38.00
48043;DHT22;33988;47.992;8.820;2022-07-21T12:59:05;32.50;37.90
48043;DHT22;33988;47.992;8.820;2022-07-21T13:01:33;32.60;39.20
48043;DHT22;33988;47.992;8.820;2022-07-21T13:04:04;32.60;38.40
48043;DHT22;33988;47.992;8.820;2022-07-21T13:06:36;32.60;37.50
48043;DHT22;33988;47.992;8.820;2022-07-21T13:09:05;32.60;37.20
48043;DHT22;33988;47.992;8.820;2022-07-21T13:11:32;32.60;37.80
48043;DHT22;33988;47.992;8.820;2022-07-21T13:13:59;32.60;38.00
48043;DHT22;33988;47.992;8.820;2022-07-21T13:16:33;32.60;37.80
48043;DHT22;33988;47.992;8.820;2022-07-21T13:19:02;32.60;37.80
48043;DHT22;33988;47.992;8.820;2022-07-21T13:21:29;32.60;37.60
48043;DHT22;33988;47.992;8.820;2022-07-21T13:23:56;32.60;37.70
48043;DHT22;33988;47.992;8.820;2022-07-21T13:26:25;32.50;37.70
48043;DHT22;33988;47.992;8.820;2022-07-21T13:28:52;32.40;37.60
48043;DHT22;33988;47.992;8.820;2022-07-21T13:31:21;32.50;37.60
48043;DHT22;33988;47.992;8.820;2022-07-21T13:33:49;32.40;37.20
48043;DHT22;33988;47.992;8.820;2022-07-21T13:36:18;32.30;36.30
48043;DHT22;33988;47.992;8.820;2022-07-21T13:38:45;32.20;37.00
48043;DHT22;33988;47.992;8.820;2022-07-21T13:41:37;32.20;36.60
48043;DHT22;33988;47.992;8.820;2022-07-21T13:44:27;32.10;36.90
48043;DHT22;33988;47.992;8.820;2022-07-21T13:46:54;32.10;38.00
48043;DHT22;33988;47.992;8.820;2022-07-21T13:49:21;32.00;37.90
48043;DHT22;33988;47.992;8.820;2022-07-21T13:51:48;32.00;37.90
48043;DHT22;33988;47.992;8.820;2022-07-21T13:54:17;32.00;37.80
48043;DHT22;33988;47.992;8.820;2022-07-21T13:56:47;31.90;37.80
48043;DHT22;33988;47.992;8.820;2022-07-21T13:59:14;31.90;37.70
48043;DHT22;33988;47.992;8.820;2022-07-21T14:01:41;31.80;37.80
48043;DHT22;33988;47.992;8.820;2022-07-21T14:04:09;31.70;38.00
48043;DHT22;33988;47.992;8.820;2022-07-21T14:06:36;31.60;38.10
48043;DHT22;33988;47.992;8.820;2022-07-21T14:09:10;31.60;38.20
48043;DHT22;33988;47.992;8.820;2022-07-21T14:11:40;31.60;38.40
48043;DHT22;33988;47.992;8.820;2022-07-21T14:14:07;31.60;38.50
48043;DHT22;33988;47.992;8.820;2022-07-21T14:16:39;31.60;38.20
48043;DHT22;33988;47.992;8.820;2022-07-21T14:19:06;31.50;38.20
48043;DHT22;33988;47.992;8.820;2022-07-21T14:21:33;31.50;37.90
48043;DHT22;33988;47.992;8.820;2022-07-21T14:24:00;31.40;37.80
48043;DHT22;33988;47.992;8.820;2022-07-21T14:26:48;31.40;37.70
48043;DHT22;33988;47.992;8.820;2022-07-21T14:29:15;31.30;37.80
48043;DHT22;33988;47.992;8.820;2022-07-21T14:31:44;31.30;37.90
48043;DHT22;33988;47.992;8.820;2022-07-21T14:34:12;31.20;38.40
48043;DHT22;33988;47.992;8.820;2022-07-21T14:36:40;31.20;38.50
48043;DHT22;33988;47.992;8.820;2022-07-21T14:39:07;31.20;38.70
48043;DHT22;33988;47.992;8.820;2022-07-21T14:41:36;31.10;38.50
48043;DHT22;33988;47.992;8.820;2022-07-21T14:44:05;31.10;38.90
48043;DHT22;33988;47.992;8.820;2022-07-21T14:46:35;31.10;38.80
48043;DHT22;33988;47.992;8.820;2022-07-21T14:49:02;31.10;38.80
48043;DHT22;33988;47.992;8.820;2022-07-21T14:51:32;31.00;38.70
48043;DHT22;33988;47.992;8.820;2022-07-21T14:53:59;31.00;38.60
48043;DHT22;33988;47.992;8.820;2022-07-21T14:56:28;30.90;38.80
48043;DHT22;33988;47.992;8.820;2022-07-21T14:59:17;30.90;39.20
48043;DHT22;33988;47.992;8.820;2022-07-21T15:01:47;30.80;39.40
48043;DHT22;33988;47.992;8.820;2022-07-21T15:04:14;30.80;38.90
48043;DHT22;33988;47.992;8.820;2022-07-21T15:06:41;30.70;40.20
48043;DHT22;33988;47.992;8.820;2022-07-21T15:09:14;30.70;40.60
48043;DHT22;33988;47.992;8.820;2022-07-21T15:11:44;30.60;39.90
48043;DHT22;33988;47.992;8.820;2022-07-21T15:14:12;30.60;39.10
48043;DHT22;33988;47.992;8.820;2022-07-21T15:16:39;30.50;38.90
48043;DHT22;33988;47.992;8.820;2022-07-21T15:19:06;30.50;38.40
48043;DHT22;33988;47.992;8.820;2022-07-21T15:21:33;30.40;38.10
48043;DHT22;33988;47.992;8.820;2022-07-21T15:24:02;30.50;37.90
48043;DHT22;33988;47.992;8.820;2022-07-21T15:26:29;30.40;38.60
48043;DHT22;33988;47.992;8.820;2022-07-21T15:28:56;30.40;38.00
48043;DHT22;33988;47.992;8.820;2022-07-21T15:31:24;30.40;38.20
48043;DHT22;33988;47.992;8.820;2022-07-21T15:33:52;30.40;38.60
48043;DHT22;33988;47.992;8.820;2022-07-21T15:36:22;30.40;38.50
48043;DHT22;33988;47.992;8.820;2022-07-21T15:38:52;30.40;38.80
48043;DHT22;33988;47.992;8.820;2022-07-21T15:41:26;30.40;39.00
48043;DHT22;33988;47.992;8.820;2022-07-21T15:44:14;30.40;39.10
48043;DHT22;33988;47.992;8.820;2022-07-21T15:46:41;30.40;38.90
48043;DHT22;33988;47.992;8.820;2022-07-21T15:49:09;30.40;38.90
48043;DHT22;33988;47.992;8.820;2022-07-21T15:51:41;30.40;39.10
48043;DHT22;33988;47.992;8.820;2022-07-21T15:54:08;30.40;38.60
48043;DHT22;33988;47.992;8.820;2022-07-21T15:56:35;30.40;39.00
48043;DHT22;33988;47.992;8.820;2022-07-21T15:59:02;30.40;39.00
48043;DHT22;33988;47.992;8.820;2022-07-21T16:01:48;30.40;39.30
48043;DHT22;33988;47.992;8.820;2022-07-21T16:04:17;30.40;40.00
48043;DHT22;33988;47.992;8.820;2022-07-21T16:06:47;30.30;39.60
48043;DHT22;33988;47.992;8.820;2022-07-21T16:09:18;30.30;39.60
48043;DHT22;33988;47.992;8.820;2022-07-21T16:11:48;30.30;39.80
48043;DHT22;33988;47.992;8.820;2022-07-21T16:14:15;30.30;40.40
48043;DHT22;33988;47.992;8.820;2022-07-21T16:16:42;30.30;39.60
48043;DHT22;33988;47.992;8.820;2022-07-21T16:19:09;30.30;39.50
48043;DHT22;33988;47.992;8.820;2022-07-21T16:21:39;30.30;39.40